Jack Holland — WDF3615 — position and weather

sailwx.info

Track history (hours):
 
Tides and Currents Weather Stations Pressure Air Temp Water Temp Dewpoint Dewpoint Depression Visibility Wind Speed Wind Dir Waves Ship Positions

Jack Holland

Owner: Norfolk Tug Company, Norfolk, VA. More information available from US FCC via Universal Licensing System and Coast Guard Vessel Documentation Center.

Last reported at 2017-Jun-25 15:07 UTC. Time now 2017-Jun-25 22:38 UTC.
Position N 36°57' W 076°22'.

Length 22 m; draft 2.5 m.

Type: Tug. MMSI: 367442020.

Date/timePositionNaut miles runAvg speedWind from/ knotsBaromVisibWave heightAir tempDewpointWater temp
2017-Jun-25 15:07N 36°57' W 076°22'1 5.8
2017-Jun-25 14:52N 36°57' W 076°20'6 7.3
2017-Jun-25 14:00N 36°51' W 076°18'3 6.8
2017-Jun-25 13:30N 36°48' W 076°18'2 3.2
2017-Jun-25 13:00N 36°46' W 076°18'0 0.3
2017-Jun-25 12:30N 36°46' W 076°18'2 3.3
2017-Jun-25 12:00N 36°48' W 076°18'0 0.0
2017-Jun-25 11:30N 36°48' W 076°18'0 0.0
2017-Jun-25 11:00N 36°48' W 076°18'3 5.5
2017-Jun-25 10:30N 36°50' W 076°17'0 0.9
2017-Jun-25 10:00N 36°50' W 076°16'0 0.0
2017-Jun-25 09:30N 36°50' W 076°16'0 0.0
2017-Jun-25 09:00N 36°50' W 076°16'0 0.0
2017-Jun-25 08:30N 36°50' W 076°16'0 0.0
2017-Jun-25 08:00N 36°50' W 076°16'0 0.0
2017-Jun-25 07:30N 36°50' W 076°16'0 0.0
2017-Jun-25 07:00N 36°50' W 076°16'0 0.0
2017-Jun-25 06:30N 36°50' W 076°16'0 0.0
2017-Jun-25 06:01N 36°50' W 076°16'0 0.0
2017-Jun-25 05:30N 36°50' W 076°16'0 0.0
2017-Jun-25 05:00N 36°50' W 076°16'0 0.0
2017-Jun-25 04:30N 36°50' W 076°16'0 0.0
2017-Jun-25 04:00N 36°50' W 076°16'0 0.0
2017-Jun-25 03:30N 36°50' W 076°16'0 0.0
2017-Jun-25 03:00N 36°50' W 076°16'0 0.0
2017-Jun-25 02:30N 36°50' W 076°16'0 0.0
2017-Jun-25 02:00N 36°50' W 076°16'0 0.0
2017-Jun-25 01:30N 36°50' W 076°16'0 0.0
2017-Jun-25 01:00N 36°50' W 076°16'0 0.0
2017-Jun-25 00:30N 36°50' W 076°16'0 0.0
2017-Jun-25 00:00N 36°50' W 076°16'0 0.0
2017-Jun-24 23:31N 36°50' W 076°16'0 0.0
2017-Jun-24 23:00N 36°50' W 076°16'0 0.0
2017-Jun-24 22:30N 36°50' W 076°16'0 0.0
2017-Jun-24 22:00N 36°50' W 076°16'0 0.0
2017-Jun-24 21:30N 36°50' W 076°16'0 0.0
2017-Jun-24 21:00N 36°50' W 076°16'0 1.0
2017-Jun-24 20:30N 36°50' W 076°17'0 0.9
2017-Jun-24 20:00N 36°50' W 076°16'0 0.0
2017-Jun-24 19:30N 36°50' W 076°16'0 0.0
2017-Jun-24 19:00N 36°50' W 076°16'0 0.0
2017-Jun-24 18:30N 36°50' W 076°16'0 0.0
2017-Jun-24 18:00N 36°50' W 076°16'0 0.0
2017-Jun-24 17:30N 36°50' W 076°16'0 0.0
2017-Jun-24 17:01N 36°50' W 076°16'0 0.0
2017-Jun-24 16:30N 36°50' W 076°16'0 0.0
2017-Jun-24 16:00N 36°50' W 076°16'0 0.0
2017-Jun-24 15:30N 36°50' W 076°16'0 0.0
2017-Jun-24 15:00N 36°50' W 076°16'0 0.0
2017-Jun-24 14:00N 36°50' W 076°16'0 0.0
2017-Jun-24 13:30N 36°50' W 076°16'0 0.0
2017-Jun-24 13:00N 36°50' W 076°16'0 0.0
2017-Jun-24 12:30N 36°50' W 076°16'0 0.0
2017-Jun-24 12:00N 36°50' W 076°16'0 0.0
2017-Jun-24 11:30N 36°50' W 076°16'0 0.0
2017-Jun-24 11:00N 36°50' W 076°16'0 0.0
2017-Jun-24 10:31N 36°50' W 076°16'0 0.0
2017-Jun-24 10:00N 36°50' W 076°16'0 0.0
2017-Jun-24 09:30N 36°50' W 076°16'0 0.0
2017-Jun-24 09:00N 36°50' W 076°16'0 0.0
2017-Jun-24 08:30N 36°50' W 076°16'0 0.0
2017-Jun-24 08:00N 36°50' W 076°16'0 0.0
2017-Jun-24 07:30N 36°50' W 076°16'0 0.0
2017-Jun-24 07:00N 36°50' W 076°16'0 0.0
2017-Jun-24 06:30N 36°50' W 076°16'0 0.0
2017-Jun-24 06:00N 36°50' W 076°16'0 0.0
2017-Jun-24 05:30N 36°50' W 076°16'0 0.0
2017-Jun-24 05:00N 36°50' W 076°16'0 0.0
2017-Jun-24 04:30N 36°50' W 076°16'0 0.0
2017-Jun-24 04:00N 36°50' W 076°16'0 0.0
2017-Jun-24 03:30N 36°50' W 076°16'0 0.0
2017-Jun-24 03:00N 36°50' W 076°16'0 0.0
2017-Jun-24 02:30N 36°50' W 076°16'0 0.0
2017-Jun-24 02:00N 36°50' W 076°16'0 0.0
2017-Jun-24 01:30N 36°50' W 076°16'0 0.0
2017-Jun-24 01:00N 36°50' W 076°16'0 0.0
2017-Jun-24 00:31N 36°50' W 076°16'0 0.0
2017-Jun-24 00:00N 36°50' W 076°16'0 0.0
2017-Jun-23 23:30N 36°50' W 076°16'0 0.0
2017-Jun-23 23:00N 36°50' W 076°16'0 0.0
2017-Jun-23 22:30N 36°50' W 076°16'0 0.0
2017-Jun-23 22:00N 36°50' W 076°16'0 0.0
2017-Jun-23 21:30N 36°50' W 076°16'0 0.0
2017-Jun-23 21:00N 36°50' W 076°16'0 0.0
2017-Jun-23 20:30N 36°50' W 076°16'0 0.0
2017-Jun-23 20:00N 36°50' W 076°16'0 0.0
2017-Jun-23 19:30N 36°50' W 076°16'0 0.0
2017-Jun-23 19:00N 36°50' W 076°16'0 0.0
2017-Jun-23 18:31N 36°50' W 076°16'0 0.0
2017-Jun-23 18:00N 36°50' W 076°16'0 0.0
2017-Jun-23 17:30N 36°50' W 076°16'0 0.0
2017-Jun-23 17:00N 36°50' W 076°16'0 0.0
2017-Jun-23 16:30N 36°50' W 076°16'0 0.0
2017-Jun-23 16:00N 36°50' W 076°16'0 0.0
2017-Jun-23 15:30N 36°50' W 076°16'0 0.0
2017-Jun-23 15:00N 36°50' W 076°16'0 0.0
2017-Jun-23 14:01N 36°50' W 076°16'0 0.0
2017-Jun-23 13:30N 36°50' W 076°16'0 0.0
2017-Jun-23 13:00N 36°50' W 076°16'0 0.0
2017-Jun-23 12:30N 36°50' W 076°16'0 0.0
2017-Jun-23 12:01N 36°50' W 076°16'0 0.0
2017-Jun-23 11:30N 36°50' W 076°16'0 0.0
2017-Jun-23 11:00N 36°50' W 076°16'0 0.0
2017-Jun-23 10:30N 36°50' W 076°16'0 0.0
2017-Jun-23 10:00N 36°50' W 076°16'0 0.0
2017-Jun-23 09:30N 36°50' W 076°16'0 0.0
2017-Jun-23 09:00N 36°50' W 076°16'0 0.0
2017-Jun-23 08:30N 36°50' W 076°16'0 0.0
2017-Jun-23 08:00N 36°50' W 076°16'0 0.0
2017-Jun-23 07:30N 36°50' W 076°16'0 0.0
2017-Jun-23 07:00N 36°50' W 076°16'0 0.0
2017-Jun-23 06:30N 36°50' W 076°16'0 0.0
2017-Jun-23 06:01N 36°50' W 076°16'0 0.0
2017-Jun-23 05:30N 36°50' W 076°16'0 0.0
2017-Jun-23 05:00N 36°50' W 076°16'0 0.0
2017-Jun-23 04:30N 36°50' W 076°16'0 0.0
2017-Jun-23 04:00N 36°50' W 076°16'0 0.0
2017-Jun-23 03:31N 36°50' W 076°16'0 0.0
2017-Jun-23 03:00N 36°50' W 076°16'0 0.0
2017-Jun-23 02:30N 36°50' W 076°16'0 0.0
2017-Jun-23 02:00N 36°50' W 076°16'0 0.0
2017-Jun-23 01:30N 36°50' W 076°16'0 0.0
2017-Jun-23 01:00N 36°50' W 076°16'0 0.0
2017-Jun-23 00:30N 36°50' W 076°16'0 0.0
2017-Jun-23 00:00N 36°50' W 076°16'0 0.0
2017-Jun-22 23:30N 36°50' W 076°16'0 0.0
2017-Jun-22 23:00N 36°50' W 076°16'0 0.0
2017-Jun-22 22:30N 36°50' W 076°16'0 0.0
2017-Jun-22 22:00N 36°50' W 076°16'0 0.0
2017-Jun-22 21:30N 36°50' W 076°16'0 0.0
2017-Jun-22 21:01N 36°50' W 076°16'0 0.0
2017-Jun-22 20:30N 36°50' W 076°16'0 0.0
2017-Jun-22 20:00N 36°50' W 076°16'0 0.0
2017-Jun-22 19:30N 36°50' W 076°16'0 0.0
2017-Jun-22 19:00N 36°50' W 076°16'0 0.0
2017-Jun-22 18:30N 36°50' W 076°16'0 0.0
2017-Jun-22 18:00N 36°50' W 076°16'0 0.0
2017-Jun-22 17:30N 36°50' W 076°16'0 0.0
2017-Jun-22 17:01N 36°50' W 076°16'0 0.0
2017-Jun-22 16:30N 36°50' W 076°16'0 0.0
2017-Jun-22 16:01N 36°50' W 076°16'0 0.0
2017-Jun-22 15:30N 36°50' W 076°16'0 0.0
2017-Jun-22 15:00N 36°50' W 076°16'0 0.0
2017-Jun-22 14:30N 36°50' W 076°16'0 0.0
2017-Jun-22 13:30N 36°50' W 076°16'0 0.0
2017-Jun-22 13:00N 36°50' W 076°16'0 0.0
2017-Jun-22 12:30N 36°50' W 076°16'0 0.0
2017-Jun-22 12:00N 36°50' W 076°16'0 0.0
2017-Jun-22 11:30N 36°50' W 076°16'0 0.0
2017-Jun-22 11:00N 36°50' W 076°16'0 0.0
2017-Jun-22 10:30N 36°50' W 076°16'1 1.1
2017-Jun-22 10:00N 36°50' W 076°17'2 5.0
2017-Jun-22 09:30N 36°48' W 076°18'2 4.0
2017-Jun-22 09:00N 36°46' W 076°18'0 0.8
2017-Jun-22 08:30N 36°46' W 076°18'2 3.1
2017-Jun-22 08:00N 36°48' W 076°18'3 6.2
2017-Jun-22 07:30N 36°51' W 076°18'3 6.1
2017-Jun-22 07:00N 36°54' W 076°20'3 6.3
2017-Jun-22 06:30N 36°57' W 076°20'2 0.1
2017-Jun-20 20:47N 36°55' W 076°20'2 7.7
2017-Jun-20 20:30N 36°53' W 076°20'3 6.3
2017-Jun-20 20:00N 36°50' W 076°18'3 6.6
2017-Jun-20 19:30N 36°47' W 076°18'1 2.2
2017-Jun-20 19:01N 36°46' W 076°18'0 0.0
2017-Jun-20 18:30N 36°46' W 076°18'0 0.1
2017-Jun-20 18:00N 36°46' W 076°18'0 0.0
2017-Jun-20 17:30N 36°46' W 076°18'0 0.0
2017-Jun-20 17:00N 36°46' W 076°18'0 0.0
2017-Jun-20 16:30N 36°46' W 076°18'0 0.0
2017-Jun-20 16:00N 36°46' W 076°18'0 0.0
2017-Jun-20 15:30N 36°46' W 076°18'0 0.0
2017-Jun-20 15:00N 36°46' W 076°18'0 0.0
2017-Jun-20 14:00N 36°46' W 076°18'0 0.0
2017-Jun-20 13:30N 36°46' W 076°18'0 0.0
2017-Jun-20 13:00N 36°46' W 076°18'0 0.0
2017-Jun-20 12:30N 36°46' W 076°18'0 0.0
2017-Jun-20 12:01N 36°46' W 076°18'0 0.0
2017-Jun-20 11:30N 36°46' W 076°18'0 0.0
2017-Jun-20 11:00N 36°46' W 076°18'1 0.2
2017-Jun-20 06:43N 36°47' W 076°18'1 5.5
2017-Jun-20 06:30N 36°48' W 076°18'3 6.0
2017-Jun-20 06:00N 36°51' W 076°18'3 6.0
2017-Jun-20 05:30N 36°53' W 076°20'4 6.2
2017-Jun-20 04:56N 36°57' W 076°20'1 0.0
2017-Jun-18 21:03N 36°56' W 076°20'1 9.1
2017-Jun-18 20:59N 36°55' W 076°20'4 8.2
2017-Jun-18 20:30N 36°52' W 076°19'3 6.7
2017-Jun-18 20:00N 36°48' W 076°17'2 3.9
2017-Jun-18 19:30N 36°46' W 076°18'0 0.9
2017-Jun-18 19:00N 36°46' W 076°18'1 2.7
2017-Jun-18 18:30N 36°47' W 076°18'3 6.5
2017-Jun-18 18:00N 36°51' W 076°18'1 2.1
2017-Jun-18 17:30N 36°50' W 076°16'0 0.0
2017-Jun-18 17:00N 36°50' W 076°16'0 0.0
2017-Jun-18 16:30N 36°50' W 076°16'0 0.0
2017-Jun-18 16:00N 36°50' W 076°16'0 0.0
2017-Jun-18 15:30N 36°50' W 076°16'0 0.0
2017-Jun-18 15:00N 36°50' W 076°16'0 0.0
2017-Jun-18 14:00N 36°50' W 076°16'0 0.0
2017-Jun-18 13:31N 36°50' W 076°16'0 0.0
2017-Jun-18 13:00N 36°50' W 076°16'0 0.0
2017-Jun-18 12:31N 36°50' W 076°16'0 0.0
2017-Jun-18 12:01N 36°50' W 076°16'0 0.0
2017-Jun-18 11:31N 36°50' W 076°16'0 0.0
2017-Jun-18 11:01N 36°50' W 076°16'0 0.0
2017-Jun-18 10:30N 36°50' W 076°16'0 0.0
2017-Jun-18 10:00N 36°50' W 076°16'0 0.0
2017-Jun-18 09:31N 36°50' W 076°16'0 0.0
2017-Jun-18 09:01N 36°50' W 076°16'0 0.0
2017-Jun-18 08:31N 36°50' W 076°16'0 0.0
2017-Jun-18 08:01N 36°50' W 076°16'0 0.0
2017-Jun-18 07:31N 36°50' W 076°16'0 0.0
2017-Jun-18 07:00N 36°50' W 076°16'0 0.0
2017-Jun-18 06:30N 36°50' W 076°16'0 0.0
2017-Jun-18 06:00N 36°50' W 076°16'0 0.0
2017-Jun-18 05:30N 36°50' W 076°16'0 0.0
2017-Jun-18 05:00N 36°50' W 076°16'0 0.0
2017-Jun-18 04:30N 36°50' W 076°16'0 0.0
2017-Jun-18 04:01N 36°50' W 076°16'0 0.0
2017-Jun-18 03:30N 36°50' W 076°16'0 0.0
2017-Jun-18 03:01N 36°50' W 076°16'0 0.0
2017-Jun-18 02:30N 36°50' W 076°16'0 0.0
2017-Jun-18 02:00N 36°50' W 076°16'0 0.0
2017-Jun-18 01:30N 36°50' W 076°16'0 0.0
2017-Jun-18 01:00N 36°50' W 076°16'0 0.0
2017-Jun-18 00:30N 36°50' W 076°16'0 0.0
2017-Jun-18 00:01N 36°50' W 076°16'0 0.0
2017-Jun-17 23:30N 36°50' W 076°16'0 0.0
2017-Jun-17 23:00N 36°50' W 076°16'0 0.3
2017-Jun-17 22:30N 36°50' W 076°16'2 3.2
2017-Jun-17 22:00N 36°49' W 076°17'1 2.7
2017-Jun-17 21:30N 36°48' W 076°18'0 0.0
2017-Jun-17 21:00N 36°48' W 076°18'1 1.2
2017-Jun-17 20:30N 36°47' W 076°18'1 2.8
2017-Jun-17 20:00N 36°46' W 076°18'0 0.0
2017-Jun-17 19:30N 36°46' W 076°18'0 0.0
2017-Jun-17 19:00N 36°46' W 076°18'0 0.0
2017-Jun-17 18:30N 36°46' W 076°18'0 0.0
2017-Jun-17 18:00N 36°46' W 076°18'0 0.0
2017-Jun-17 17:30N 36°46' W 076°18'0 0.1
2017-Jun-17 17:00N 36°46' W 076°18'0 0.0
2017-Jun-17 16:30N 36°46' W 076°18'0 0.0
2017-Jun-17 16:00N 36°46' W 076°18'0 0.0
2017-Jun-17 15:30N 36°46' W 076°18'0 0.0
2017-Jun-17 15:00N 36°46' W 076°18'0 0.0
2017-Jun-17 14:30N 36°46' W 076°18'0 0.0
2017-Jun-17 13:30N 36°46' W 076°18'0 0.0
2017-Jun-17 13:00N 36°46' W 076°18'0 0.0
2017-Jun-17 12:30N 36°46' W 076°18'0 0.0
2017-Jun-17 12:00N 36°46' W 076°18'0 0.0
2017-Jun-17 11:30N 36°46' W 076°18'0 0.0
2017-Jun-17 11:00N 36°46' W 076°18'0 0.0
2017-Jun-17 10:30N 36°46' W 076°18'0 0.0
2017-Jun-17 10:00N 36°46' W 076°18'0 0.0
2017-Jun-17 09:30N 36°46' W 076°18'0 0.1
2017-Jun-17 09:00N 36°46' W 076°18'1 1.1
2017-Jun-17 08:30N 36°47' W 076°18'2 3.5
2017-Jun-17 08:00N 36°48' W 076°17'3 5.4
2017-Jun-17 07:30N 36°51' W 076°18'3 6.1
2017-Jun-17 07:00N 36°53' W 076°20'5 0.2
2017-Jun-15 22:48N 36°57' W 076°24'2 7.6
2017-Jun-15 22:30N 36°57' W 076°21'4 8.5
2017-Jun-15 22:00N 36°53' W 076°20'4 7.2
2017-Jun-15 21:30N 36°50' W 076°18'3 5.7
2017-Jun-15 21:00N 36°47' W 076°18'1 2.2
2017-Jun-15 20:30N 36°46' W 076°18'0 0.0
2017-Jun-15 20:00N 36°46' W 076°18'0 0.1
2017-Jun-15 19:30N 36°46' W 076°18'0 0.0
2017-Jun-15 19:00N 36°46' W 076°18'0 0.0
2017-Jun-15 18:30N 36°46' W 076°18'0 0.0
2017-Jun-15 18:00N 36°46' W 076°18'0 0.0
2017-Jun-15 17:30N 36°46' W 076°18'0 0.0
2017-Jun-15 17:00N 36°46' W 076°18'0 0.0
2017-Jun-15 16:30N 36°46' W 076°18'0 0.0
2017-Jun-15 16:00N 36°46' W 076°18'0 0.0
2017-Jun-15 15:30N 36°46' W 076°18'  
Track history (hours):
 
Tides and Currents Weather Stations Pressure Air Temp Water Temp Dewpoint Dewpoint Depression Visibility Wind Speed Wind Dir Waves Ship Positions

Jack Holland

Owner: Norfolk Tug Company, Norfolk, VA. More information available from US FCC via Universal Licensing System and Coast Guard Vessel Documentation Center.

Last reported at 2017-Jun-25 15:07 UTC. Time now 2017-Jun-25 22:38 UTC.
Position N 36°57' W 076°22'.

Length 22 m; draft 2.5 m.

Type: Tug. MMSI: 367442020.

Date/timePositionNaut miles runAvg speedWind from/ knotsBaromVisibWave heightAir tempDewpointWater temp
2017-Jun-25 15:07N 36°57' W 076°22'1 5.8
2017-Jun-25 14:52N 36°57' W 076°20'6 7.3
2017-Jun-25 14:00N 36°51' W 076°18'3 6.8
2017-Jun-25 13:30N 36°48' W 076°18'2 3.2
2017-Jun-25 13:00N 36°46' W 076°18'0 0.3
2017-Jun-25 12:30N 36°46' W 076°18'2 3.3
2017-Jun-25 12:00N 36°48' W 076°18'0 0.0
2017-Jun-25 11:30N 36°48' W 076°18'0 0.0
2017-Jun-25 11:00N 36°48' W 076°18'3 5.5
2017-Jun-25 10:30N 36°50' W 076°17'0 0.9
2017-Jun-25 10:00N 36°50' W 076°16'0 0.0
2017-Jun-25 09:30N 36°50' W 076°16'0 0.0
2017-Jun-25 09:00N 36°50' W 076°16'0 0.0
2017-Jun-25 08:30N 36°50' W 076°16'0 0.0
2017-Jun-25 08:00N 36°50' W 076°16'0 0.0
2017-Jun-25 07:30N 36°50' W 076°16'0 0.0
2017-Jun-25 07:00N 36°50' W 076°16'0 0.0
2017-Jun-25 06:30N 36°50' W 076°16'0 0.0
2017-Jun-25 06:01N 36°50' W 076°16'0 0.0
2017-Jun-25 05:30N 36°50' W 076°16'0 0.0
2017-Jun-25 05:00N 36°50' W 076°16'0 0.0
2017-Jun-25 04:30N 36°50' W 076°16'0 0.0
2017-Jun-25 04:00N 36°50' W 076°16'0 0.0
2017-Jun-25 03:30N 36°50' W 076°16'0 0.0
2017-Jun-25 03:00N 36°50' W 076°16'0 0.0
2017-Jun-25 02:30N 36°50' W 076°16'0 0.0
2017-Jun-25 02:00N 36°50' W 076°16'0 0.0
2017-Jun-25 01:30N 36°50' W 076°16'0 0.0
2017-Jun-25 01:00N 36°50' W 076°16'0 0.0
2017-Jun-25 00:30N 36°50' W 076°16'0 0.0
2017-Jun-25 00:00N 36°50' W 076°16'0 0.0
2017-Jun-24 23:31N 36°50' W 076°16'0 0.0
2017-Jun-24 23:00N 36°50' W 076°16'0 0.0
2017-Jun-24 22:30N 36°50' W 076°16'0 0.0
2017-Jun-24 22:00N 36°50' W 076°16'0 0.0
2017-Jun-24 21:30N 36°50' W 076°16'0 0.0
2017-Jun-24 21:00N 36°50' W 076°16'0 1.0
2017-Jun-24 20:30N 36°50' W 076°17'0 0.9
2017-Jun-24 20:00N 36°50' W 076°16'0 0.0
2017-Jun-24 19:30N 36°50' W 076°16'0 0.0
2017-Jun-24 19:00N 36°50' W 076°16'0 0.0
2017-Jun-24 18:30N 36°50' W 076°16'0 0.0
2017-Jun-24 18:00N 36°50' W 076°16'0 0.0
2017-Jun-24 17:30N 36°50' W 076°16'0 0.0
2017-Jun-24 17:01N 36°50' W 076°16'0 0.0
2017-Jun-24 16:30N 36°50' W 076°16'0 0.0
2017-Jun-24 16:00N 36°50' W 076°16'0 0.0
2017-Jun-24 15:30N 36°50' W 076°16'0 0.0
2017-Jun-24 15:00N 36°50' W 076°16'0 0.0
2017-Jun-24 14:00N 36°50' W 076°16'0 0.0
2017-Jun-24 13:30N 36°50' W 076°16'0 0.0
2017-Jun-24 13:00N 36°50' W 076°16'0 0.0
2017-Jun-24 12:30N 36°50' W 076°16'0 0.0
2017-Jun-24 12:00N 36°50' W 076°16'0 0.0
2017-Jun-24 11:30N 36°50' W 076°16'0 0.0
2017-Jun-24 11:00N 36°50' W 076°16'0 0.0
2017-Jun-24 10:31N 36°50' W 076°16'0 0.0
2017-Jun-24 10:00N 36°50' W 076°16'0 0.0
2017-Jun-24 09:30N 36°50' W 076°16'0 0.0
2017-Jun-24 09:00N 36°50' W 076°16'0 0.0
2017-Jun-24 08:30N 36°50' W 076°16'0 0.0
2017-Jun-24 08:00N 36°50' W 076°16'0 0.0
2017-Jun-24 07:30N 36°50' W 076°16'0 0.0
2017-Jun-24 07:00N 36°50' W 076°16'0 0.0
2017-Jun-24 06:30N 36°50' W 076°16'0 0.0
2017-Jun-24 06:00N 36°50' W 076°16'0 0.0
2017-Jun-24 05:30N 36°50' W 076°16'0 0.0
2017-Jun-24 05:00N 36°50' W 076°16'0 0.0
2017-Jun-24 04:30N 36°50' W 076°16'0 0.0
2017-Jun-24 04:00N 36°50' W 076°16'0 0.0
2017-Jun-24 03:30N 36°50' W 076°16'0 0.0
2017-Jun-24 03:00N 36°50' W 076°16'0 0.0
2017-Jun-24 02:30N 36°50' W 076°16'0 0.0
2017-Jun-24 02:00N 36°50' W 076°16'0 0.0
2017-Jun-24 01:30N 36°50' W 076°16'0 0.0
2017-Jun-24 01:00N 36°50' W 076°16'0 0.0
2017-Jun-24 00:31N 36°50' W 076°16'0 0.0
2017-Jun-24 00:00N 36°50' W 076°16'0 0.0
2017-Jun-23 23:30N 36°50' W 076°16'0 0.0
2017-Jun-23 23:00N 36°50' W 076°16'0 0.0
2017-Jun-23 22:30N 36°50' W 076°16'0 0.0
2017-Jun-23 22:00N 36°50' W 076°16'0 0.0
2017-Jun-23 21:30N 36°50' W 076°16'0 0.0
2017-Jun-23 21:00N 36°50' W 076°16'0 0.0
2017-Jun-23 20:30N 36°50' W 076°16'0 0.0
2017-Jun-23 20:00N 36°50' W 076°16'0 0.0
2017-Jun-23 19:30N 36°50' W 076°16'0 0.0
2017-Jun-23 19:00N 36°50' W 076°16'0 0.0
2017-Jun-23 18:31N 36°50' W 076°16'0 0.0
2017-Jun-23 18:00N 36°50' W 076°16'0 0.0
2017-Jun-23 17:30N 36°50' W 076°16'0 0.0
2017-Jun-23 17:00N 36°50' W 076°16'0 0.0
2017-Jun-23 16:30N 36°50' W 076°16'0 0.0
2017-Jun-23 16:00N 36°50' W 076°16'0 0.0
2017-Jun-23 15:30N 36°50' W 076°16'0 0.0
2017-Jun-23 15:00N 36°50' W 076°16'0 0.0
2017-Jun-23 14:01N 36°50' W 076°16'0 0.0
2017-Jun-23 13:30N 36°50' W 076°16'0 0.0
2017-Jun-23 13:00N 36°50' W 076°16'0 0.0
2017-Jun-23 12:30N 36°50' W 076°16'0 0.0
2017-Jun-23 12:01N 36°50' W 076°16'0 0.0
2017-Jun-23 11:30N 36°50' W 076°16'0 0.0
2017-Jun-23 11:00N 36°50' W 076°16'0 0.0
2017-Jun-23 10:30N 36°50' W 076°16'0 0.0
2017-Jun-23 10:00N 36°50' W 076°16'0 0.0
2017-Jun-23 09:30N 36°50' W 076°16'0 0.0
2017-Jun-23 09:00N 36°50' W 076°16'0 0.0
2017-Jun-23 08:30N 36°50' W 076°16'0 0.0
2017-Jun-23 08:00N 36°50' W 076°16'0 0.0
2017-Jun-23 07:30N 36°50' W 076°16'0 0.0
2017-Jun-23 07:00N 36°50' W 076°16'0 0.0
2017-Jun-23 06:30N 36°50' W 076°16'0 0.0
2017-Jun-23 06:01N 36°50' W 076°16'0 0.0
2017-Jun-23 05:30N 36°50' W 076°16'0 0.0
2017-Jun-23 05:00N 36°50' W 076°16'0 0.0
2017-Jun-23 04:30N 36°50' W 076°16'0 0.0
2017-Jun-23 04:00N 36°50' W 076°16'0 0.0
2017-Jun-23 03:31N 36°50' W 076°16'0 0.0
2017-Jun-23 03:00N 36°50' W 076°16'0 0.0
2017-Jun-23 02:30N 36°50' W 076°16'0 0.0
2017-Jun-23 02:00N 36°50' W 076°16'0 0.0
2017-Jun-23 01:30N 36°50' W 076°16'0 0.0
2017-Jun-23 01:00N 36°50' W 076°16'0 0.0
2017-Jun-23 00:30N 36°50' W 076°16'0 0.0
2017-Jun-23 00:00N 36°50' W 076°16'0 0.0
2017-Jun-22 23:30N 36°50' W 076°16'0 0.0
2017-Jun-22 23:00N 36°50' W 076°16'0 0.0
2017-Jun-22 22:30N 36°50' W 076°16'0 0.0
2017-Jun-22 22:00N 36°50' W 076°16'0 0.0
2017-Jun-22 21:30N 36°50' W 076°16'0 0.0
2017-Jun-22 21:01N 36°50' W 076°16'0 0.0
2017-Jun-22 20:30N 36°50' W 076°16'0 0.0
2017-Jun-22 20:00N 36°50' W 076°16'0 0.0
2017-Jun-22 19:30N 36°50' W 076°16'0 0.0
2017-Jun-22 19:00N 36°50' W 076°16'0 0.0
2017-Jun-22 18:30N 36°50' W 076°16'0 0.0
2017-Jun-22 18:00N 36°50' W 076°16'0 0.0
2017-Jun-22 17:30N 36°50' W 076°16'0 0.0
2017-Jun-22 17:01N 36°50' W 076°16'0 0.0
2017-Jun-22 16:30N 36°50' W 076°16'0 0.0
2017-Jun-22 16:01N 36°50' W 076°16'0 0.0
2017-Jun-22 15:30N 36°50' W 076°16'0 0.0
2017-Jun-22 15:00N 36°50' W 076°16'0 0.0
2017-Jun-22 14:30N 36°50' W 076°16'0 0.0
2017-Jun-22 13:30N 36°50' W 076°16'0 0.0
2017-Jun-22 13:00N 36°50' W 076°16'0 0.0
2017-Jun-22 12:30N 36°50' W 076°16'0 0.0
2017-Jun-22 12:00N 36°50' W 076°16'0 0.0
2017-Jun-22 11:30N 36°50' W 076°16'0 0.0
2017-Jun-22 11:00N 36°50' W 076°16'0 0.0
2017-Jun-22 10:30N 36°50' W 076°16'1 1.1
2017-Jun-22 10:00N 36°50' W 076°17'2 5.0
2017-Jun-22 09:30N 36°48' W 076°18'2 4.0
2017-Jun-22 09:00N 36°46' W 076°18'0 0.8
2017-Jun-22 08:30N 36°46' W 076°18'2 3.1
2017-Jun-22 08:00N 36°48' W 076°18'3 6.2
2017-Jun-22 07:30N 36°51' W 076°18'3 6.1
2017-Jun-22 07:00N 36°54' W 076°20'3 6.3
2017-Jun-22 06:30N 36°57' W 076°20'2 0.1
2017-Jun-20 20:47N 36°55' W 076°20'2 7.7
2017-Jun-20 20:30N 36°53' W 076°20'3 6.3
2017-Jun-20 20:00N 36°50' W 076°18'3 6.6
2017-Jun-20 19:30N 36°47' W 076°18'1 2.2
2017-Jun-20 19:01N 36°46' W 076°18'0 0.0
2017-Jun-20 18:30N 36°46' W 076°18'0 0.1
2017-Jun-20 18:00N 36°46' W 076°18'0 0.0
2017-Jun-20 17:30N 36°46' W 076°18'0 0.0
2017-Jun-20 17:00N 36°46' W 076°18'0 0.0
2017-Jun-20 16:30N 36°46' W 076°18'0 0.0
2017-Jun-20 16:00N 36°46' W 076°18'0 0.0
2017-Jun-20 15:30N 36°46' W 076°18'0 0.0
2017-Jun-20 15:00N 36°46' W 076°18'0 0.0
2017-Jun-20 14:00N 36°46' W 076°18'0 0.0
2017-Jun-20 13:30N 36°46' W 076°18'0 0.0
2017-Jun-20 13:00N 36°46' W 076°18'0 0.0
2017-Jun-20 12:30N 36°46' W 076°18'0 0.0
2017-Jun-20 12:01N 36°46' W 076°18'0 0.0
2017-Jun-20 11:30N 36°46' W 076°18'0 0.0
2017-Jun-20 11:00N 36°46' W 076°18'1 0.2
2017-Jun-20 06:43N 36°47' W 076°18'1 5.5
2017-Jun-20 06:30N 36°48' W 076°18'3 6.0
2017-Jun-20 06:00N 36°51' W 076°18'3 6.0
2017-Jun-20 05:30N 36°53' W 076°20'4 6.2
2017-Jun-20 04:56N 36°57' W 076°20'1 0.0
2017-Jun-18 21:03N 36°56' W 076°20'1 9.1
2017-Jun-18 20:59N 36°55' W 076°20'4 8.2
2017-Jun-18 20:30N 36°52' W 076°19'3 6.7
2017-Jun-18 20:00N 36°48' W 076°17'2 3.9
2017-Jun-18 19:30N 36°46' W 076°18'0 0.9
2017-Jun-18 19:00N 36°46' W 076°18'1 2.7
2017-Jun-18 18:30N 36°47' W 076°18'3 6.5
2017-Jun-18 18:00N 36°51' W 076°18'1 2.1
2017-Jun-18 17:30N 36°50' W 076°16'0 0.0
2017-Jun-18 17:00N 36°50' W 076°16'0 0.0
2017-Jun-18 16:30N 36°50' W 076°16'0 0.0
2017-Jun-18 16:00N 36°50' W 076°16'0 0.0
2017-Jun-18 15:30N 36°50' W 076°16'0 0.0
2017-Jun-18 15:00N 36°50' W 076°16'0 0.0
2017-Jun-18 14:00N 36°50' W 076°16'0 0.0
2017-Jun-18 13:31N 36°50' W 076°16'0 0.0
2017-Jun-18 13:00N 36°50' W 076°16'0 0.0
2017-Jun-18 12:31N 36°50' W 076°16'0 0.0
2017-Jun-18 12:01N 36°50' W 076°16'0 0.0
2017-Jun-18 11:31N 36°50' W 076°16'0 0.0
2017-Jun-18 11:01N 36°50' W 076°16'0 0.0
2017-Jun-18 10:30N 36°50' W 076°16'0 0.0
2017-Jun-18 10:00N 36°50' W 076°16'0 0.0
2017-Jun-18 09:31N 36°50' W 076°16'0 0.0
2017-Jun-18 09:01N 36°50' W 076°16'0 0.0
2017-Jun-18 08:31N 36°50' W 076°16'0 0.0
2017-Jun-18 08:01N 36°50' W 076°16'0 0.0
2017-Jun-18 07:31N 36°50' W 076°16'0 0.0
2017-Jun-18 07:00N 36°50' W 076°16'0 0.0
2017-Jun-18 06:30N 36°50' W 076°16'0 0.0
2017-Jun-18 06:00N 36°50' W 076°16'0 0.0
2017-Jun-18 05:30N 36°50' W 076°16'0 0.0
2017-Jun-18 05:00N 36°50' W 076°16'0 0.0
2017-Jun-18 04:30N 36°50' W 076°16'0 0.0
2017-Jun-18 04:01N 36°50' W 076°16'0 0.0
2017-Jun-18 03:30N 36°50' W 076°16'0 0.0
2017-Jun-18 03:01N 36°50' W 076°16'0 0.0
2017-Jun-18 02:30N 36°50' W 076°16'0 0.0
2017-Jun-18 02:00N 36°50' W 076°16'0 0.0
2017-Jun-18 01:30N 36°50' W 076°16'0 0.0
2017-Jun-18 01:00N 36°50' W 076°16'0 0.0
2017-Jun-18 00:30N 36°50' W 076°16'0 0.0
2017-Jun-18 00:01N 36°50' W 076°16'0 0.0
2017-Jun-17 23:30N 36°50' W 076°16'0 0.0
2017-Jun-17 23:00N 36°50' W 076°16'0 0.3
2017-Jun-17 22:30N 36°50' W 076°16'2 3.2
2017-Jun-17 22:00N 36°49' W 076°17'1 2.7
2017-Jun-17 21:30N 36°48' W 076°18'0 0.0
2017-Jun-17 21:00N 36°48' W 076°18'1 1.2
2017-Jun-17 20:30N 36°47' W 076°18'1 2.8
2017-Jun-17 20:00N 36°46' W 076°18'0 0.0
2017-Jun-17 19:30N 36°46' W 076°18'0 0.0
2017-Jun-17 19:00N 36°46' W 076°18'0 0.0
2017-Jun-17 18:30N 36°46' W 076°18'0 0.0
2017-Jun-17 18:00N 36°46' W 076°18'0 0.0
2017-Jun-17 17:30N 36°46' W 076°18'0 0.1
2017-Jun-17 17:00N 36°46' W 076°18'0 0.0
2017-Jun-17 16:30N 36°46' W 076°18'0 0.0
2017-Jun-17 16:00N 36°46' W 076°18'0 0.0
2017-Jun-17 15:30N 36°46' W 076°18'0 0.0
2017-Jun-17 15:00N 36°46' W 076°18'0 0.0
2017-Jun-17 14:30N 36°46' W 076°18'0 0.0
2017-Jun-17 13:30N 36°46' W 076°18'0 0.0
2017-Jun-17 13:00N 36°46' W 076°18'0 0.0
2017-Jun-17 12:30N 36°46' W 076°18'0 0.0
2017-Jun-17 12:00N 36°46' W 076°18'0 0.0
2017-Jun-17 11:30N 36°46' W 076°18'0 0.0
2017-Jun-17 11:00N 36°46' W 076°18'0 0.0
2017-Jun-17 10:30N 36°46' W 076°18'0 0.0
2017-Jun-17 10:00N 36°46' W 076°18'0 0.0
2017-Jun-17 09:30N 36°46' W 076°18'0 0.1
2017-Jun-17 09:00N 36°46' W 076°18'1 1.1
2017-Jun-17 08:30N 36°47' W 076°18'2 3.5
2017-Jun-17 08:00N 36°48' W 076°17'3 5.4
2017-Jun-17 07:30N 36°51' W 076°18'3 6.1
2017-Jun-17 07:00N 36°53' W 076°20'5 0.2
2017-Jun-15 22:48N 36°57' W 076°24'2 7.6
2017-Jun-15 22:30N 36°57' W 076°21'4 8.5
2017-Jun-15 22:00N 36°53' W 076°20'4 7.2
2017-Jun-15 21:30N 36°50' W 076°18'3 5.7
2017-Jun-15 21:00N 36°47' W 076°18'1 2.2
2017-Jun-15 20:30N 36°46' W 076°18'0 0.0
2017-Jun-15 20:00N 36°46' W 076°18'0 0.1
2017-Jun-15 19:30N 36°46' W 076°18'0 0.0
2017-Jun-15 19:00N 36°46' W 076°18'0 0.0
2017-Jun-15 18:30N 36°46' W 076°18'0 0.0
2017-Jun-15 18:00N 36°46' W 076°18'0 0.0
2017-Jun-15 17:30N 36°46' W 076°18'0 0.0
2017-Jun-15 17:00N 36°46' W 076°18'0 0.0
2017-Jun-15 16:30N 36°46' W 076°18'0 0.0
2017-Jun-15 16:00N 36°46' W 076°18'0 0.0
2017-Jun-15 15:30N 36°46' W 076°18'  

Dump ship's entire track history